Time;durP1;ratioP1;P1;durP2;ratioP2;P2;SDS_P1;SDS_P2;PMS_P1;PMS_P2;Temp;Humidity;BMP_temperature;BMP_pressure;BME280_temperature;BME280_humidity;BME280_pressure;Samples;Min_cycle;Max_cycle;Signal;HPM_P1;HPM_P2
2023/09/12 00:00:52;;;;;;;9.93;6.10;;;19.80;99.90;;;;;;4209247;28;20256;-81
2023/09/12 00:02:54;;;;;;;14.33;6.83;;;19.80;99.90;;;;;;4210866;28;20201;-81
2023/09/12 00:04:56;;;;;;;12.47;6.47;;;19.80;99.90;;;;;;4202847;28;20217;-82
2023/09/12 00:06:58;;;;;;;11.73;6.73;;;19.80;99.90;;;;;;4206959;28;20902;-81
2023/09/12 00:09:00;;;;;;;10.13;6.00;;;19.80;99.90;;;;;;4207194;28;20229;-81
2023/09/12 00:11:04;;;;;;;11.23;6.17;;;19.70;99.90;;;;;;4208705;28;20251;-81
2023/09/12 00:13:07;;;;;;;11.17;5.93;;;19.70;99.90;;;;;;4205435;28;20217;-81
2023/09/12 00:15:10;;;;;;;9.70;5.80;;;19.70;99.90;;;;;;4213287;28;20235;-81
2023/09/12 00:17:14;;;;;;;10.80;6.47;;;19.70;99.90;;;;;;4210878;28;20217;-81
2023/09/12 00:19:16;;;;;;;11.43;6.10;;;19.70;99.90;;;;;;4217405;28;20237;-81
2023/09/12 00:21:18;;;;;;;10.90;6.27;;;19.60;99.90;;;;;;4213431;28;20258;-81
2023/09/12 00:23:21;;;;;;;9.93;6.00;;;19.60;99.90;;;;;;4209380;28;20537;-82
2023/09/12 00:25:23;;;;;;;11.07;5.70;;;19.60;99.90;;;;;;4210594;28;20212;-81
2023/09/12 00:27:25;;;;;;;12.03;6.40;;;19.60;99.90;;;;;;4211312;28;20506;-81
2023/09/12 00:29:29;;;;;;;8.10;5.90;;;19.60;99.90;;;;;;4203036;28;20244;-81
2023/09/12 00:31:31;;;;;;;9.27;6.40;;;19.60;99.90;;;;;;4207588;28;20211;-81
2023/09/12 00:33:33;;;;;;;10.83;6.63;;;19.50;99.90;;;;;;4204185;28;20582;-81
2023/09/12 00:35:35;;;;;;;9.60;6.00;;;19.50;99.90;;;;;;4210907;28;20209;-81
2023/09/12 00:37:37;;;;;;;12.63;7.00;;;19.50;99.90;;;;;;4209410;28;20210;-81
2023/09/12 00:39:39;;;;;;;11.00;6.30;;;19.50;99.90;;;;;;4210334;28;20234;-81
2023/09/12 00:41:41;;;;;;;14.97;6.43;;;19.50;99.90;;;;;;4212825;28;20216;-81
2023/09/12 00:43:43;;;;;;;9.97;6.50;;;19.50;99.90;;;;;;4211440;28;20204;-81
2023/09/12 00:45:46;;;;;;;12.93;5.50;;;19.50;99.90;;;;;;4210782;28;20255;-81
2023/09/12 00:47:50;;;;;;;7.77;5.53;;;19.50;99.90;;;;;;4203721;28;20210;-81
2023/09/12 00:49:53;;;;;;;12.10;6.07;;;19.40;99.90;;;;;;4211770;28;20217;-81
2023/09/12 00:51:57;;;;;;;10.20;6.07;;;19.40;99.90;;;;;;4211062;28;20700;-81
2023/09/12 00:53:59;;;;;;;9.03;5.90;;;19.30;99.90;;;;;;4211679;28;20222;-81
2023/09/12 00:56:02;;;;;;;11.60;6.23;;;19.30;99.90;;;;;;4205725;28;20202;-81
2023/09/12 00:58:04;;;;;;;10.60;6.20;;;19.30;99.90;;;;;;4185323;28;20222;-80
2023/09/12 01:00:12;;;;;;;10.90;5.70;;;19.30;99.90;;;;;;4188096;28;20805;-81
2023/09/12 01:02:15;;;;;;;9.67;6.20;;;19.20;99.90;;;;;;4203449;28;20200;-81
2023/09/12 01:04:20;;;;;;;9.33;5.93;;;19.20;99.90;;;;;;4208633;28;20197;-81
2023/09/12 01:06:25;;;;;;;12.37;5.73;;;19.20;99.90;;;;;;4208478;28;20201;-81
2023/09/12 01:08:27;;;;;;;11.80;6.50;;;19.20;99.90;;;;;;4208507;28;20309;-81
2023/09/12 01:10:29;;;;;;;10.63;6.03;;;19.10;99.90;;;;;;4206783;28;20210;-81
2023/09/12 01:12:31;;;;;;;10.60;6.20;;;19.10;99.90;;;;;;4198629;28;20693;-81
2023/09/12 01:14:34;;;;;;;10.87;6.40;;;19.10;99.90;;;;;;4202411;28;20205;-80
2023/09/12 01:16:36;;;;;;;9.80;5.50;;;19.10;99.90;;;;;;4203363;28;20267;-81
2023/09/12 01:18:41;;;;;;;11.57;6.20;;;19.10;99.90;;;;;;4206878;28;20271;-80
2023/09/12 01:20:54;;;;;;;12.23;6.17;;;19.00;99.90;;;;;;4197643;28;20212;-80
2023/09/12 01:23:22;;;;;;;10.13;6.10;;;19.00;99.90;;;;;;4205853;28;20694;-80
2023/09/12 01:25:43;;;;;;;8.37;5.63;;;18.90;99.90;;;;;;4208906;28;20216;-80
2023/09/12 01:27:49;;;;;;;10.07;5.83;;;19.00;99.90;;;;;;4197537;28;20206;-80
2023/09/12 01:29:57;;;;;;;12.93;6.40;;;18.90;99.90;;;;;;4213158;28;20225;-80
2023/09/12 01:32:01;;;;;;;10.57;5.87;;;18.90;99.90;;;;;;4205459;28;20215;-80
2023/09/12 01:34:10;;;;;;;9.93;5.67;;;18.90;99.90;;;;;;4205601;28;20290;-80
2023/09/12 01:36:12;;;;;;;10.47;5.93;;;18.90;99.90;;;;;;4208076;28;20204;-81
2023/09/12 01:38:14;;;;;;;8.97;5.73;;;18.80;99.90;;;;;;4203197;28;20217;-80
2023/09/12 01:40:24;;;;;;;15.00;7.50;;;18.80;99.90;;;;;;4202792;28;20292;-81
2023/09/12 01:42:30;;;;;;;10.30;5.73;;;18.80;99.90;;;;;;4206019;28;20285;-80
2023/09/12 01:48:51;;;;;;;10.27;6.00;;;18.70;99.90;;;;;;4224078;28;20232;-79
2023/09/12 01:50:53;;;;;;;9.67;5.63;;;18.70;99.90;;;;;;4225397;28;20214;-79
2023/09/12 01:52:55;;;;;;;10.57;5.80;;;18.60;99.90;;;;;;4202903;28;20241;-79
2023/09/12 01:54:57;;;;;;;11.13;6.03;;;18.60;99.90;;;;;;4208224;28;20205;-79
2023/09/12 01:56:59;;;;;;;11.40;6.53;;;18.60;99.90;;;;;;4186315;28;20206;-79
2023/09/12 01:59:03;;;;;;;9.93;6.17;;;18.60;99.90;;;;;;4196061;28;20211;-79
2023/09/12 02:01:04;;;;;;;12.83;5.80;;;18.50;99.90;;;;;;4197825;28;20214;-79
2023/09/12 02:03:06;;;;;;;9.83;6.03;;;18.50;99.90;;;;;;4175464;28;20203;-79
2023/09/12 02:05:15;;;;;;;10.00;5.93;;;18.50;99.90;;;;;;4175814;28;20203;-79
2023/09/12 02:07:17;;;;;;;9.30;6.00;;;18.50;99.90;;;;;;4196763;28;20246;-79
2023/09/12 02:09:19;;;;;;;10.80;6.07;;;18.40;99.90;;;;;;4199903;28;20206;-81
2023/09/12 02:11:21;;;;;;;10.50;5.97;;;18.40;99.90;;;;;;4199410;28;20209;-81
2023/09/12 02:13:22;;;;;;;8.30;5.80;;;18.40;99.90;;;;;;4201362;28;20261;-79
2023/09/12 02:15:24;;;;;;;14.97;6.77;;;18.40;99.90;;;;;;4196673;28;20229;-79
2023/09/12 02:17:26;;;;;;;15.83;6.87;;;18.40;99.90;;;;;;4195574;28;20261;-79
2023/09/12 02:19:28;;;;;;;13.93;6.60;;;18.40;99.90;;;;;;4194865;28;20664;-79
2023/09/12 02:21:31;;;;;;;10.53;6.23;;;18.40;99.90;;;;;;4194511;28;20198;-79
2023/09/12 02:23:33;;;;;;;10.50;6.10;;;18.40;99.90;;;;;;4192954;28;20761;-79
2023/09/12 02:25:35;;;;;;;12.13;6.77;;;18.40;99.90;;;;;;4197071;28;20285;-79
2023/09/12 02:27:36;;;;;;;9.63;6.07;;;18.40;99.90;;;;;;4188953;28;20210;-79
2023/09/12 02:29:39;;;;;;;10.50;7.03;;;18.30;99.90;;;;;;4197066;28;20227;-81
2023/09/12 02:31:41;;;;;;;11.37;6.67;;;18.30;99.90;;;;;;4195443;28;20205;-81
2023/09/12 02:33:43;;;;;;;10.33;6.10;;;18.30;99.90;;;;;;4176981;28;20284;-81
2023/09/12 02:35:44;;;;;;;10.37;6.17;;;18.30;99.90;;;;;;4199430;28;20218;-81
2023/09/12 02:37:47;;;;;;;12.63;8.03;;;18.30;99.90;;;;;;4191639;28;20618;-81
2023/09/12 02:39:48;;;;;;;10.20;6.47;;;18.30;99.90;;;;;;4195675;28;20237;-81
2023/09/12 02:41:50;;;;;;;12.73;6.30;;;18.20;99.90;;;;;;4194155;28;20208;-80
2023/09/12 02:43:52;;;;;;;10.67;6.27;;;18.20;99.90;;;;;;4191378;28;20198;-81
2023/09/12 02:45:53;;;;;;;10.93;6.37;;;18.20;99.90;;;;;;4195244;28;20229;-81
2023/09/12 02:47:55;;;;;;;8.73;5.87;;;18.30;99.90;;;;;;4193847;28;20266;-81
2023/09/12 02:49:57;;;;;;;11.07;7.10;;;18.20;99.90;;;;;;4192841;28;20264;-81
2023/09/12 02:51:58;;;;;;;14.03;6.77;;;18.20;99.90;;;;;;4194666;28;20227;-81
2023/09/12 02:54:02;;;;;;;13.10;6.43;;;18.20;99.90;;;;;;4198138;28;20228;-81
2023/09/12 02:56:03;;;;;;;13.17;6.67;;;18.20;99.90;;;;;;4194908;28;20226;-81
2023/09/12 02:58:05;;;;;;;10.33;6.23;;;18.20;99.90;;;;;;4197148;28;20237;-79
2023/09/12 03:00:09;;;;;;;12.23;6.73;;;18.20;99.90;;;;;;4194305;28;20206;-79
2023/09/12 03:02:10;;;;;;;10.37;6.30;;;18.10;99.90;;;;;;4191949;28;20217;-80
2023/09/12 03:04:12;;;;;;;10.70;6.03;;;18.10;99.90;;;;;;4189093;28;20201;-80
2023/09/12 03:06:14;;;;;;;8.77;6.30;;;18.10;99.90;;;;;;4184096;28;20256;-80
2023/09/12 03:08:15;;;;;;;16.23;7.33;;;18.00;99.90;;;;;;4186001;28;20209;-79
2023/09/12 03:10:19;;;;;;;9.90;5.87;;;18.00;99.90;;;;;;4189867;28;20234;-80
2023/09/12 03:12:20;;;;;;;8.20;5.93;;;18.00;99.90;;;;;;4186986;28;20231;-80
2023/09/12 03:14:21;;;;;;;9.27;6.30;;;18.00;99.90;;;;;;4186614;28;20218;-80
2023/09/12 03:16:24;;;;;;;14.00;6.80;;;17.90;99.90;;;;;;4189009;28;20226;-80
2023/09/12 03:18:26;;;;;;;9.00;5.80;;;17.90;99.90;;;;;;4188368;28;20275;-80
2023/09/12 03:20:28;;;;;;;8.77;5.97;;;17.90;99.90;;;;;;4189599;28;20212;-80
2023/09/12 03:22:32;;;;;;;11.90;6.10;;;17.90;99.90;;;;;;4184092;28;20205;-80
2023/09/12 03:24:33;;;;;;;11.33;6.30;;;17.80;99.90;;;;;;4187100;28;20209;-80
2023/09/12 03:26:37;;;;;;;11.67;6.23;;;17.80;99.90;;;;;;4187572;28;20876;-80
2023/09/12 03:28:38;;;;;;;13.23;6.37;;;17.80;99.90;;;;;;4171006;28;20700;-80
2023/09/12 03:30:40;;;;;;;8.77;6.27;;;17.80;99.90;;;;;;4188756;28;20205;-80
2023/09/12 03:32:42;;;;;;;12.00;6.53;;;17.70;99.90;;;;;;4188200;28;20213;-80
2023/09/12 03:34:44;;;;;;;10.53;6.40;;;17.70;99.90;;;;;;4169902;28;20234;-80
2023/09/12 03:36:46;;;;;;;11.30;6.43;;;17.70;99.90;;;;;;4193107;28;20234;-80
2023/09/12 03:38:48;;;;;;;9.43;6.33;;;17.70;99.90;;;;;;4170789;28;20233;-80
2023/09/12 03:40:49;;;;;;;9.57;6.47;;;17.70;99.90;;;;;;4197103;28;20235;-80
2023/09/12 03:42:53;;;;;;;12.37;6.90;;;17.70;99.90;;;;;;4187532;28;20216;-80
2023/09/12 03:44:55;;;;;;;11.17;6.63;;;17.70;99.90;;;;;;4192879;28;20258;-80
2023/09/12 03:46:57;;;;;;;10.03;6.40;;;17.70;99.90;;;;;;4191591;28;20229;-79
2023/09/12 03:48:59;;;;;;;11.20;6.40;;;17.70;99.90;;;;;;4192380;28;20216;-80
2023/09/12 03:51:03;;;;;;;10.87;6.27;;;17.70;99.90;;;;;;4189250;28;20581;-80
2023/09/12 03:53:05;;;;;;;9.07;6.50;;;17.60;99.90;;;;;;4193305;28;20304;-80
2023/09/12 03:55:08;;;;;;;14.30;7.20;;;17.60;99.90;;;;;;4191036;28;20221;-80
2023/09/12 03:57:10;;;;;;;9.43;6.17;;;17.60;99.90;;;;;;4193634;28;20221;-80
2023/09/12 03:59:13;;;;;;;11.30;6.30;;;17.60;99.90;;;;;;4194101;28;21331;-80
2023/09/12 04:01:15;;;;;;;9.97;6.70;;;17.60;99.90;;;;;;4191883;28;20206;-80
2023/09/12 04:03:17;;;;;;;10.40;6.57;;;17.60;99.90;;;;;;4191728;28;20216;-80
2023/09/12 04:05:18;;;;;;;12.53;7.23;;;17.50;99.90;;;;;;4192005;28;20636;-79
2023/09/12 04:07:20;;;;;;;9.70;6.80;;;17.50;99.90;;;;;;4192786;28;20206;-80
2023/09/12 04:09:22;;;;;;;8.93;6.13;;;17.60;99.90;;;;;;4194155;28;20208;-80
2023/09/12 04:11:23;;;;;;;9.83;6.60;;;17.50;99.90;;;;;;4194200;28;20229;-79
2023/09/12 04:13:25;;;;;;;12.37;6.70;;;17.50;99.90;;;;;;4174402;28;20210;-80
2023/09/12 04:15:28;;;;;;;9.53;7.30;;;17.50;99.90;;;;;;4190059;28;20311;-80
2023/09/12 04:17:30;;;;;;;10.70;6.93;;;17.50;99.90;;;;;;4180585;28;20218;-80
2023/09/12 04:19:32;;;;;;;11.57;6.50;;;17.50;99.90;;;;;;4171462;28;20281;-80
2023/09/12 04:21:34;;;;;;;12.33;6.80;;;17.50;99.90;;;;;;4189463;28;20300;-80
2023/09/12 04:23:36;;;;;;;10.43;6.63;;;17.50;99.90;;;;;;4191662;28;20266;-80
2023/09/12 04:25:39;;;;;;;13.43;7.47;;;17.40;99.90;;;;;;4192135;28;20607;-80
2023/09/12 04:27:41;;;;;;;11.30;6.80;;;17.40;99.90;;;;;;4191416;28;20778;-80
2023/09/12 04:29:43;;;;;;;10.87;6.90;;;17.40;99.90;;;;;;4188476;28;20192;-80
2023/09/12 04:31:46;;;;;;;10.60;6.70;;;17.40;99.90;;;;;;4192865;28;20212;-80
2023/09/12 04:33:48;;;;;;;10.77;6.80;;;17.40;99.90;;;;;;4196648;28;20254;-80
2023/09/12 04:35:50;;;;;;;14.63;8.30;;;17.40;99.90;;;;;;4194383;28;20239;-80
2023/09/12 04:37:52;;;;;;;12.70;7.77;;;17.40;99.90;;;;;;4195942;28;20255;-80
2023/09/12 04:39:54;;;;;;;14.37;7.57;;;17.40;99.90;;;;;;4189973;28;20890;-80
2023/09/12 04:41:56;;;;;;;12.47;7.00;;;17.40;99.90;;;;;;4191317;28;20221;-80
2023/09/12 04:43:59;;;;;;;11.90;6.30;;;17.40;99.90;;;;;;4189709;28;20564;-80
2023/09/12 04:46:01;;;;;;;8.67;6.30;;;17.40;99.90;;;;;;4187236;28;20240;-80
2023/09/12 04:48:05;;;;;;;9.13;6.20;;;17.40;99.90;;;;;;4189845;28;20220;-79
2023/09/12 04:50:07;;;;;;;10.37;6.87;;;17.40;99.90;;;;;;4176278;28;20268;-80
2023/09/12 04:52:09;;;;;;;11.90;6.53;;;17.40;99.90;;;;;;4190257;28;20258;-80
2023/09/12 04:54:11;;;;;;;9.40;6.57;;;17.40;99.90;;;;;;4174197;28;20228;-80
2023/09/12 04:56:13;;;;;;;11.97;7.20;;;17.40;99.90;;;;;;4190844;28;20253;-80
2023/09/12 04:58:14;;;;;;;10.90;6.60;;;17.40;99.90;;;;;;4192373;28;20213;-80
2023/09/12 05:00:16;;;;;;;11.43;6.60;;;17.40;99.90;;;;;;4194073;28;20227;-80
2023/09/12 05:02:18;;;;;;;15.70;7.63;;;17.40;99.90;;;;;;4188500;28;20236;-81
2023/09/12 05:04:21;;;;;;;10.17;6.80;;;17.40;99.90;;;;;;4175844;28;20213;-80
2023/09/12 05:06:23;;;;;;;11.60;6.97;;;17.40;99.90;;;;;;4194291;28;20659;-80
2023/09/12 05:08:25;;;;;;;10.83;6.93;;;17.40;99.90;;;;;;4191579;28;20208;-80
2023/09/12 05:10:27;;;;;;;11.30;6.93;;;17.40;99.90;;;;;;4189604;28;20215;-80
2023/09/12 05:12:29;;;;;;;9.33;6.70;;;17.40;99.90;;;;;;4186626;28;20209;-78
2023/09/12 05:14:31;;;;;;;12.37;7.13;;;17.40;99.90;;;;;;4188750;28;20227;-77
2023/09/12 05:16:33;;;;;;;11.00;6.70;;;17.40;99.90;;;;;;4191063;28;20233;-77
2023/09/12 05:18:35;;;;;;;13.13;7.90;;;17.40;99.90;;;;;;4193551;28;20196;-76
2023/09/12 05:20:38;;;;;;;14.50;6.70;;;17.40;99.90;;;;;;4191190;28;20215;-77
2023/09/12 05:22:40;;;;;;;12.43;7.30;;;17.40;99.90;;;;;;4194051;28;20207;-79
2023/09/12 05:24:42;;;;;;;11.87;6.70;;;17.40;99.90;;;;;;4189156;28;20208;-77
2023/09/12 05:26:44;;;;;;;13.03;6.70;;;17.40;99.90;;;;;;4191980;28;20250;-77
2023/09/12 05:28:46;;;;;;;10.00;6.90;;;17.40;99.90;;;;;;4188889;28;20583;-76
2023/09/12 05:30:48;;;;;;;12.80;6.70;;;17.40;99.90;;;;;;4189578;28;20266;-77
2023/09/12 05:32:50;;;;;;;12.67;7.20;;;17.40;99.90;;;;;;4188829;28;20834;-77
2023/09/12 05:34:51;;;;;;;11.83;7.00;;;17.50;99.90;;;;;;4190710;28;20239;-77
2023/09/12 05:36:55;;;;;;;14.83;7.30;;;17.50;99.90;;;;;;4190418;28;20604;-77
2023/09/12 05:38:57;;;;;;;13.27;7.33;;;17.50;99.90;;;;;;4186412;28;20214;-76
2023/09/12 05:40:59;;;;;;;10.63;6.47;;;17.50;99.90;;;;;;4179389;28;20222;-76
2023/09/12 05:43:00;;;;;;;13.97;6.90;;;17.50;99.90;;;;;;4183699;28;20223;-76
2023/09/12 05:45:02;;;;;;;13.67;7.50;;;17.50;99.90;;;;;;4180051;28;20216;-77
2023/09/12 05:47:06;;;;;;;11.63;7.27;;;17.50;99.90;;;;;;4184358;28;20693;-76
2023/09/12 05:49:08;;;;;;;11.60;7.07;;;17.50;99.90;;;;;;4186382;28;20221;-76
2023/09/12 05:51:11;;;;;;;11.40;6.77;;;17.60;99.90;;;;;;4173766;28;20209;-76
2023/09/12 05:53:14;;;;;;;11.47;6.60;;;17.60;99.90;;;;;;4182020;28;20718;-77
2023/09/12 05:55:16;;;;;;;11.13;7.43;;;17.60;99.90;;;;;;4185277;28;20229;-76
2023/09/12 05:57:18;;;;;;;10.53;7.20;;;17.60;99.90;;;;;;4185436;28;20209;-80
2023/09/12 05:59:20;;;;;;;10.17;6.80;;;17.60;99.90;;;;;;4194285;28;20236;-79
2023/09/12 06:01:22;;;;;;;14.37;7.47;;;17.70;99.90;;;;;;4192618;28;20296;-79
2023/09/12 06:03:24;;;;;;;11.47;7.90;;;17.70;99.90;;;;;;4188226;28;20205;-81
2023/09/12 06:05:26;;;;;;;11.30;7.60;;;17.70;99.90;;;;;;4190474;28;20278;-78
2023/09/12 06:07:28;;;;;;;9.07;6.80;;;17.80;99.90;;;;;;4185629;28;20753;-79
2023/09/12 06:09:31;;;;;;;11.00;7.37;;;17.80;99.90;;;;;;4175058;28;20489;-79
2023/09/12 06:11:33;;;;;;;9.47;7.20;;;17.80;99.90;;;;;;4174017;28;20230;-79
2023/09/12 06:13:37;;;;;;;14.10;7.30;;;17.90;99.90;;;;;;4190170;28;20675;-79
2023/09/12 06:15:41;;;;;;;11.37;7.63;;;17.90;99.90;;;;;;4191748;28;20235;-79
2023/09/12 06:17:42;;;;;;;11.33;6.90;;;17.90;99.90;;;;;;4196701;28;20204;-79
2023/09/12 06:19:44;;;;;;;17.30;9.07;;;17.90;99.90;;;;;;4192369;28;20213;-80
2023/09/12 06:21:46;;;;;;;12.60;7.87;;;18.00;99.90;;;;;;4189076;28;20708;-79
2023/09/12 06:23:48;;;;;;;15.07;9.13;;;18.00;99.90;;;;;;4190683;28;20662;-79
2023/09/12 06:25:52;;;;;;;24.33;14.57;;;18.00;99.90;;;;;;4191076;28;20329;-79
2023/09/12 06:27:53;;;;;;;19.13;10.33;;;18.00;99.90;;;;;;4181170;28;20259;-79
2023/09/12 06:29:55;;;;;;;15.37;8.83;;;18.00;99.90;;;;;;4191565;28;20286;-80
2023/09/12 06:31:58;;;;;;;14.83;8.53;;;18.00;99.90;;;;;;4189166;28;20702;-79
2023/09/12 06:34:00;;;;;;;15.30;8.60;;;18.00;99.90;;;;;;4189311;28;20622;-79
2023/09/12 06:36:03;;;;;;;15.37;8.10;;;18.10;99.90;;;;;;4192116;28;20234;-79
2023/09/12 06:38:05;;;;;;;15.23;8.03;;;18.10;99.90;;;;;;4187408;28;20214;-79
2023/09/12 06:40:08;;;;;;;10.77;7.70;;;18.10;99.90;;;;;;4186454;28;20209;-79
2023/09/12 06:42:11;;;;;;;14.53;8.03;;;18.20;99.90;;;;;;4193048;28;20206;-78
2023/09/12 06:44:13;;;;;;;13.47;8.30;;;18.20;99.90;;;;;;4189538;28;20573;-79
2023/09/12 06:46:17;;;;;;;15.60;8.00;;;18.20;99.90;;;;;;4188834;28;20290;-80
2023/09/12 06:48:19;;;;;;;18.37;8.47;;;18.30;99.90;;;;;;4185977;28;20287;-80
2023/09/12 06:50:21;;;;;;;15.60;7.53;;;18.30;99.90;;;;;;4189398;28;20255;-78
2023/09/12 06:52:23;;;;;;;16.60;7.87;;;18.30;99.90;;;;;;4189421;28;20563;-77
2023/09/12 06:54:25;;;;;;;18.13;8.20;;;18.40;99.90;;;;;;4188459;28;20256;-77
2023/09/12 06:56:27;;;;;;;14.27;7.93;;;18.50;99.90;;;;;;4187515;28;20229;-78
2023/09/12 06:58:30;;;;;;;15.77;7.87;;;18.50;99.90;;;;;;4170884;28;20211;-78
2023/09/12 07:00:32;;;;;;;14.03;7.23;;;18.50;99.90;;;;;;4183740;28;20721;-77
2023/09/12 07:02:34;;;;;;;14.33;8.20;;;18.60;99.90;;;;;;4191546;28;20296;-77
2023/09/12 07:04:36;;;;;;;14.53;7.83;;;18.60;99.90;;;;;;4187708;28;20211;-77
2023/09/12 07:06:38;;;;;;;14.87;7.17;;;18.70;99.90;;;;;;4187902;28;20288;-77
2023/09/12 07:08:40;;;;;;;15.87;7.43;;;18.70;99.90;;;;;;4166133;28;20274;-77
2023/09/12 07:10:46;;;;;;;16.50;7.47;;;18.80;99.90;;;;;;4171789;28;20260;-77
2023/09/12 07:12:47;;;;;;;19.20;7.83;;;18.80;99.90;;;;;;4191301;28;20222;-77
2023/09/12 07:14:51;;;;;;;12.37;7.30;;;18.90;99.90;;;;;;4188036;28;20229;-77
2023/09/12 07:16:53;;;;;;;10.17;6.57;;;18.90;99.90;;;;;;4192429;28;20238;-78
2023/09/12 07:18:54;;;;;;;13.03;7.13;;;18.90;99.90;;;;;;4191159;28;20565;-78
2023/09/12 07:21:00;;;;;;;14.37;7.30;;;19.00;99.90;;;;;;4188718;28;20202;-77
2023/09/12 07:23:02;;;;;;;11.43;6.90;;;19.00;99.90;;;;;;4193422;28;20611;-77
2023/09/12 07:25:04;;;;;;;12.07;7.50;;;19.10;99.90;;;;;;4186966;28;20210;-77
2023/09/12 07:27:06;;;;;;;16.03;7.47;;;19.20;99.90;;;;;;4193603;28;20550;-78
2023/09/12 07:29:08;;;;;;;24.57;8.60;;;19.30;99.90;;;;;;4190105;28;20639;-77
2023/09/12 07:31:11;;;;;;;17.87;7.53;;;19.30;99.90;;;;;;4176615;28;20268;-80
2023/09/12 07:33:13;;;;;;;15.80;8.00;;;19.40;99.90;;;;;;4192451;28;20217;-77
2023/09/12 07:35:15;;;;;;;17.70;6.97;;;19.40;99.90;;;;;;4195399;28;20217;-77
2023/09/12 07:37:17;;;;;;;13.33;6.30;;;19.50;99.90;;;;;;4191361;28;20455;-77
2023/09/12 07:39:19;;;;;;;14.63;7.53;;;19.60;99.90;;;;;;4189971;28;20281;-77
2023/09/12 07:41:20;;;;;;;13.17;6.80;;;19.70;99.90;;;;;;4195055;28;20264;-77
2023/09/12 07:43:22;;;;;;;18.17;6.90;;;19.70;99.90;;;;;;4191534;28;20206;-77
2023/09/12 07:45:24;;;;;;;13.20;7.00;;;19.80;99.90;;;;;;4192092;28;20229;-78
2023/09/12 07:47:27;;;;;;;14.93;7.60;;;19.90;99.90;;;;;;4190918;28;20560;-78
2023/09/12 07:49:28;;;;;;;18.30;6.60;;;19.90;99.90;;;;;;4187846;28;20213;-77
2023/09/12 07:51:30;;;;;;;14.50;7.10;;;20.00;99.90;;;;;;4186839;28;20194;-78
2023/09/12 07:53:31;;;;;;;19.27;7.47;;;20.10;99.90;;;;;;4192739;28;20210;-79
2023/09/12 07:55:44;;;;;;;15.57;6.83;;;20.10;99.90;;;;;;4188269;28;20227;-77
2023/09/12 07:57:46;;;;;;;13.77;6.90;;;20.20;99.90;;;;;;4190310;28;20688;-78
2023/09/12 07:59:48;;;;;;;13.93;6.57;;;20.30;99.90;;;;;;4188866;28;20329;-78
2023/09/12 08:01:51;;;;;;;11.67;6.87;;;20.40;99.90;;;;;;4192905;28;20488;-77
2023/09/12 08:03:54;;;;;;;21.57;7.20;;;20.40;99.90;;;;;;4194416;28;20703;-78
2023/09/12 08:05:57;;;;;;;16.67;7.47;;;20.50;99.90;;;;;;4192447;28;20222;-77
2023/09/12 08:07:59;;;;;;;14.43;7.00;;;20.60;99.90;;;;;;4188598;28;20641;-78
2023/09/12 08:10:01;;;;;;;14.40;6.67;;;20.60;99.90;;;;;;4190177;28;20213;-80
2023/09/12 08:12:03;;;;;;;13.27;6.50;;;20.60;99.90;;;;;;4189180;28;20218;-77
2023/09/12 08:14:05;;;;;;;13.03;6.20;;;20.70;99.90;;;;;;4187926;28;20596;-77
2023/09/12 08:16:06;;;;;;;11.77;6.77;;;20.80;99.90;;;;;;4194845;28;20284;-77
2023/09/12 08:18:08;;;;;;;10.63;6.63;;;20.80;99.90;;;;;;4191136;28;20215;-77
2023/09/12 08:20:12;;;;;;;14.93;8.17;;;20.90;99.90;;;;;;4189899;28;20209;-78
2023/09/12 08:22:14;;;;;;;12.90;7.90;;;21.00;99.90;;;;;;4188390;28;20209;-78
2023/09/12 08:24:16;;;;;;;15.80;8.30;;;21.10;99.90;;;;;;4172464;28;20628;-78
2023/09/12 08:26:18;;;;;;;17.23;8.43;;;21.20;99.90;;;;;;4190421;28;20283;-78
2023/09/12 08:28:20;;;;;;;17.03;9.30;;;21.30;99.90;;;;;;4188366;28;20614;-78
2023/09/12 08:30:22;;;;;;;15.27;8.73;;;21.40;99.90;;;;;;4190543;28;20212;-78
2023/09/12 08:32:23;;;;;;;16.37;8.60;;;21.50;99.90;;;;;;4192413;28;20241;-80
2023/09/12 08:34:26;;;;;;;19.20;10.17;;;21.60;99.90;;;;;;4195032;28;20205;-79
2023/09/12 08:36:29;;;;;;;19.73;9.30;;;21.70;99.90;;;;;;4190997;28;20248;-78
2023/09/12 08:38:31;;;;;;;13.23;7.77;;;21.80;99.90;;;;;;4193527;28;20198;-78
2023/09/12 08:40:35;;;;;;;11.03;6.97;;;21.80;99.90;;;;;;4189957;28;20213;-77
2023/09/12 08:42:41;;;;;;;14.67;7.73;;;21.90;99.90;;;;;;4193394;28;20613;-77
2023/09/12 08:44:44;;;;;;;15.67;7.57;;;22.00;99.90;;;;;;4187769;28;20206;-77
2023/09/12 08:46:46;;;;;;;10.57;7.20;;;22.00;99.90;;;;;;4193807;28;20226;-79
2023/09/12 08:48:50;;;;;;;18.37;9.17;;;22.10;99.90;;;;;;4186453;28;20210;-78
2023/09/12 08:50:53;;;;;;;12.90;7.90;;;22.20;99.90;;;;;;4190412;28;20292;-79
2023/09/12 08:52:57;;;;;;;16.10;8.17;;;22.20;99.90;;;;;;4193367;28;20206;-77
2023/09/12 08:54:58;;;;;;;18.80;8.60;;;22.30;99.90;;;;;;4184214;28;20692;-78
2023/09/12 08:57:02;;;;;;;12.73;8.17;;;22.40;99.90;;;;;;4191389;28;20279;-77
2023/09/12 08:59:05;;;;;;;25.37;12.23;;;22.50;99.90;;;;;;4193775;28;20214;-77
2023/09/12 09:01:07;;;;;;;17.23;9.50;;;22.70;99.90;;;;;;4190520;28;20210;-78
2023/09/12 09:03:10;;;;;;;19.50;9.70;;;22.80;99.90;;;;;;4188794;28;20228;-78
2023/09/12 09:05:11;;;;;;;20.57;10.30;;;22.90;99.90;;;;;;4187739;28;20206;-78
2023/09/12 09:07:14;;;;;;;24.47;10.03;;;23.00;99.90;;;;;;4188540;28;20206;-77
2023/09/12 09:09:19;;;;;;;16.77;8.67;;;23.10;99.90;;;;;;4190334;28;20545;-77
2023/09/12 09:11:21;;;;;;;23.23;10.70;;;23.20;99.90;;;;;;4189499;28;20614;-77
2023/09/12 09:13:23;;;;;;;20.67;9.50;;;23.30;99.90;;;;;;4194245;28;20216;-76
2023/09/12 09:15:27;;;;;;;18.63;10.47;;;23.50;99.90;;;;;;4174180;28;20226;-77
2023/09/12 09:17:29;;;;;;;19.10;10.27;;;23.60;99.90;;;;;;4186504;28;20301;-79
2023/09/12 09:19:42;;;;;;;15.57;9.60;;;23.70;99.90;;;;;;4189969;28;20206;-78
2023/09/12 09:21:45;;;;;;;17.87;9.40;;;23.70;99.90;;;;;;4188008;28;20285;-78
2023/09/12 09:23:47;;;;;;;20.90;9.87;;;23.80;99.90;;;;;;4187989;28;20285;-77
2023/09/12 09:25:54;;;;;;;21.03;9.57;;;23.80;99.90;;;;;;4188673;28;20317;-78
2023/09/12 09:27:56;;;;;;;25.23;12.53;;;23.90;99.90;;;;;;4189956;28;20209;-77
2023/09/12 09:29:58;;;;;;;15.90;9.73;;;24.00;99.90;;;;;;4172888;28;20210;-78
2023/09/12 09:32:01;;;;;;;22.67;10.53;;;24.10;99.90;;;;;;4188537;28;20210;-77
2023/09/12 09:34:03;;;;;;;27.63;12.20;;;24.20;99.90;;;;;;4184497;28;20215;-79
2023/09/12 09:36:07;;;;;;;33.07;12.10;;;24.20;99.90;;;;;;4188318;28;20721;-78
2023/09/12 09:38:09;;;;;;;18.03;10.87;;;24.30;99.90;;;;;;4191342;28;20206;-78
2023/09/12 09:40:11;;;;;;;18.07;10.37;;;24.30;99.90;;;;;;4191509;28;20206;-77
2023/09/12 09:42:14;;;;;;;19.33;9.90;;;24.40;99.90;;;;;;4186745;28;20688;-77
2023/09/12 09:44:17;;;;;;;21.23;11.43;;;24.40;99.90;;;;;;4188910;28;20301;-77
2023/09/12 09:46:19;;;;;;;21.90;10.70;;;24.50;99.90;;;;;;4194078;28;20585;-77
2023/09/12 09:48:22;;;;;;;27.80;12.43;;;24.60;99.90;;;;;;4190003;28;20589;-78
2023/09/12 09:50:24;;;;;;;22.27;12.23;;;24.60;99.90;;;;;;4185189;28;20202;-78
2023/09/12 09:52:29;;;;;;;19.60;10.83;;;24.70;99.90;;;;;;4189121;28;20841;-78
2023/09/12 09:54:31;;;;;;;22.27;10.67;;;24.70;99.90;;;;;;4191729;28;20649;-78
2023/09/12 09:56:33;;;;;;;22.90;10.93;;;24.70;99.90;;;;;;4168034;28;20226;-78
2023/09/12 09:58:35;;;;;;;19.93;10.20;;;24.80;99.90;;;;;;4192268;28;20204;-78
2023/09/12 10:00:38;;;;;;;14.83;9.67;;;24.90;99.90;;;;;;4182173;28;20214;-78
2023/09/12 10:02:40;;;;;;;19.23;10.10;;;24.90;99.90;;;;;;4181485;28;20211;-78
2023/09/12 10:04:44;;;;;;;20.43;9.77;;;25.00;99.90;;;;;;4187968;28;20691;-79
2023/09/12 10:06:46;;;;;;;15.87;9.07;;;25.00;99.90;;;;;;4170112;28;20281;-79
2023/09/12 10:08:52;;;;;;;11.97;8.50;;;25.10;99.90;;;;;;4172686;28;20648;-79
2023/09/12 10:10:54;;;;;;;16.67;9.10;;;25.10;99.90;;;;;;4186793;28;20202;-78
2023/09/12 10:12:58;;;;;;;15.90;9.13;;;25.20;99.90;;;;;;4185143;28;20264;-79
2023/09/12 10:15:02;;;;;;;15.67;8.93;;;25.30;99.90;;;;;;4170612;28;21709;-78
2023/09/12 10:17:04;;;;;;;12.23;8.13;;;25.30;99.90;;;;;;4190501;28;20221;-78
2023/09/12 10:19:13;;;;;;;19.80;8.30;;;25.40;99.90;;;;;;4185440;28;20210;-78
2023/09/12 10:21:21;;;;;;;12.90;8.10;;;25.40;99.90;;;;;;4189256;28;20209;-79
2023/09/12 10:23:28;;;;;;;17.77;8.30;;;25.50;99.90;;;;;;4188453;28;20342;-78
2023/09/12 10:25:31;;;;;;;15.17;8.10;;;25.60;99.90;;;;;;4185375;28;20229;-78
2023/09/12 10:27:34;;;;;;;14.57;8.30;;;25.70;99.90;;;;;;4185707;28;20209;-79
2023/09/12 10:29:37;;;;;;;12.93;8.40;;;25.80;99.90;;;;;;4188705;28;20664;-78
2023/09/12 10:31:39;;;;;;;17.40;8.60;;;25.90;99.90;;;;;;4183653;28;20201;-79
2023/09/12 10:33:42;;;;;;;14.20;7.40;;;25.90;99.90;;;;;;4189553;28;20211;-81
2023/09/12 10:35:46;;;;;;;11.67;7.80;;;26.00;99.90;;;;;;4189142;28;20704;-79